Аэропорт: Якутск. Якутск

ICAO: UEEE

METAR:
2019-09-21 16:00:00
UEEE 211600Z 01001MPS CAVOK M02/M03 Q1012 R23L/09//58 NOSIG RMK QFE750
METAR:
2019-09-21 14:00:00
TAF UEEE 211400Z 2115/2221 17003G09MPS 9999 SCT020CB OVC070 TEMPO 2115/2124 VRB01MPS 0300 FZFG VV003 TEMPO 2200/2215 2100 -SHRA SCT007 BKN015CB OVC070